aviador You're here:

LEVC Decoded Metar

VALENCIA in SPAIN
Report Time2016-05-01 15:30:00
UTC Time2016-05-01 15:37:07
Flight Rules vfr VFR
Wind130° at 09 kt
W.Decomp.*RWY 12: 8.8 kt HW 1.7 kt RCW
W.Rank130° ranks 12
Current wind is above 130° avg. (7.4)
Visibility9999 m
Phenomena:N/A
Clouds:N/A
Expected CloudBase > 6,800 ft AGL from Temp-Dew spread
CeilingNone
Temp18°C (ISA +3)
Dew Point01°C (32% RH)
AAT12.9°C
QNH1022 hPa
Density Alt394 ft
Elevation203 ft
Report Wrong Elevation
Raw Report
METAR LEVC 011530Z 13009KT 100V160 CAVOK 18/01 Q1022 WS R30 NOSIG=

Extra information for LEVC:More info

Metar Taf Metar & Taf Last 4 Metars F.Rules Stats Wind Profile Meteogram Temp Stats Airport Information Weather charts Add Link Nearby VenuesMetar ALERT Operation Metar Decoded Social comments

Webcam Valencia